Terminal Aerodrome Forecast
Issued by NWS

Home | Current Version | Previous Version | Text Only | Print | Product List | Glossary On
Versions: 1 2 3 4 5 6 7 8 9 10 11 12 13 14 15 16 17 18 19 20 21 22 23 24 25 26 27 28 29 30 31 32
000
FTUS41 KBUF 270808 AAB
TAFIAG
TAF AMD
KIAG 270808Z 2708/2806 24010KT P6SM -SHRA OVC060
     FM271100 19009KT P6SM VCSH BKN040
     FM271300 19010KT P6SM BKN080
     FM271600 24012G18KT P6SM BKN035
     FM280000 28008KT P6SM SCT200
     FM280500 24006KT P6SM FEW250=

USA.gov is the U.S. government's official web portal to all federal, state and local government web resources and services.